sensor_id;sensor_type;location;lat;lon;timestamp;temperature;humidity
38936;DHT22;66589;47.458;9.644;2023-03-03T00:01:03;5.10;80.90
38936;DHT22;66589;47.458;9.644;2023-03-03T00:03:28;5.10;81.40
38936;DHT22;66589;47.458;9.644;2023-03-03T00:05:54;5.00;81.70
38936;DHT22;66589;47.458;9.644;2023-03-03T00:08:20;5.00;81.60
38936;DHT22;66589;47.458;9.644;2023-03-03T00:10:47;5.00;81.70
38936;DHT22;66589;47.458;9.644;2023-03-03T00:13:21;4.90;82.00
38936;DHT22;66589;47.458;9.644;2023-03-03T00:15:47;4.90;82.20
38936;DHT22;66589;47.458;9.644;2023-03-03T00:20:54;4.90;82.30
38936;DHT22;66589;47.458;9.644;2023-03-03T00:23:30;4.90;82.10
38936;DHT22;66589;47.458;9.644;2023-03-03T00:25:56;4.90;82.30
38936;DHT22;66589;47.458;9.644;2023-03-03T00:28:31;4.80;82.40
38936;DHT22;66589;47.458;9.644;2023-03-03T00:30:59;4.80;82.50
38936;DHT22;66589;47.458;9.644;2023-03-03T00:33:26;4.70;82.60
38936;DHT22;66589;47.458;9.644;2023-03-03T00:35:54;4.70;83.10
38936;DHT22;66589;47.458;9.644;2023-03-03T00:38:19;4.70;83.00
38936;DHT22;66589;47.458;9.644;2023-03-03T00:40:46;4.70;82.80
38936;DHT22;66589;47.458;9.644;2023-03-03T00:43:22;4.70;82.60
38936;DHT22;66589;47.458;9.644;2023-03-03T00:45:50;4.70;82.50
38936;DHT22;66589;47.458;9.644;2023-03-03T00:48:21;4.60;82.60
38936;DHT22;66589;47.458;9.644;2023-03-03T00:50:48;4.50;83.10
38936;DHT22;66589;47.458;9.644;2023-03-03T00:53:18;4.50;83.20
38936;DHT22;66589;47.458;9.644;2023-03-03T00:55:46;4.50;83.10
38936;DHT22;66589;47.458;9.644;2023-03-03T00:58:12;4.40;83.00
38936;DHT22;66589;47.458;9.644;2023-03-03T01:00:38;4.40;83.00
38936;DHT22;66589;47.458;9.644;2023-03-03T01:03:08;4.40;83.10
38936;DHT22;66589;47.458;9.644;2023-03-03T01:05:35;4.40;83.00
38936;DHT22;66589;47.458;9.644;2023-03-03T01:08:01;4.40;83.10
38936;DHT22;66589;47.458;9.644;2023-03-03T01:10:30;4.30;83.50
38936;DHT22;66589;47.458;9.644;2023-03-03T01:12:56;4.20;84.00
38936;DHT22;66589;47.458;9.644;2023-03-03T01:15:23;4.30;84.10
38936;DHT22;66589;47.458;9.644;2023-03-03T01:17:49;4.30;83.80
38936;DHT22;66589;47.458;9.644;2023-03-03T01:20:15;4.40;83.50
38936;DHT22;66589;47.458;9.644;2023-03-03T01:22:41;4.40;83.40
38936;DHT22;66589;47.458;9.644;2023-03-03T01:25:07;4.50;83.70
38936;DHT22;66589;47.458;9.644;2023-03-03T01:27:34;4.50;83.80
38936;DHT22;66589;47.458;9.644;2023-03-03T01:30:00;4.50;83.60
38936;DHT22;66589;47.458;9.644;2023-03-03T01:32:27;4.50;83.40
38936;DHT22;66589;47.458;9.644;2023-03-03T01:34:53;4.50;83.40
38936;DHT22;66589;47.458;9.644;2023-03-03T01:37:19;4.50;83.70
38936;DHT22;66589;47.458;9.644;2023-03-03T01:39:54;4.60;83.50
38936;DHT22;66589;47.458;9.644;2023-03-03T01:42:21;4.50;83.80
38936;DHT22;66589;47.458;9.644;2023-03-03T01:44:47;4.50;83.70
38936;DHT22;66589;47.458;9.644;2023-03-03T01:47:21;4.50;83.40
38936;DHT22;66589;47.458;9.644;2023-03-03T01:50:05;4.60;83.60
38936;DHT22;66589;47.458;9.644;2023-03-03T01:52:46;4.60;83.40
38936;DHT22;66589;47.458;9.644;2023-03-03T01:55:17;4.60;83.10
38936;DHT22;66589;47.458;9.644;2023-03-03T01:57:49;4.60;83.00
38936;DHT22;66589;47.458;9.644;2023-03-03T02:00:17;4.60;82.80
38936;DHT22;66589;47.458;9.644;2023-03-03T02:02:43;4.60;83.00
38936;DHT22;66589;47.458;9.644;2023-03-03T02:05:10;4.60;83.50
38936;DHT22;66589;47.458;9.644;2023-03-03T02:07:37;4.60;83.20
38936;DHT22;66589;47.458;9.644;2023-03-03T02:10:10;4.50;83.20
38936;DHT22;66589;47.458;9.644;2023-03-03T02:12:43;4.60;83.20
38936;DHT22;66589;47.458;9.644;2023-03-03T02:15:24;4.70;83.20
38936;DHT22;66589;47.458;9.644;2023-03-03T02:17:55;4.70;83.10
38936;DHT22;66589;47.458;9.644;2023-03-03T02:28:24;4.70;83.50
38936;DHT22;66589;47.458;9.644;2023-03-03T02:30:54;4.70;83.40
38936;DHT22;66589;47.458;9.644;2023-03-03T02:33:21;4.80;83.10
38936;DHT22;66589;47.458;9.644;2023-03-03T02:35:47;4.80;82.80
38936;DHT22;66589;47.458;9.644;2023-03-03T02:38:36;4.80;82.60
38936;DHT22;66589;47.458;9.644;2023-03-03T02:43:41;4.70;84.20
38936;DHT22;66589;47.458;9.644;2023-03-03T02:46:09;4.70;83.50
38936;DHT22;66589;47.458;9.644;2023-03-03T02:48:34;4.70;83.40
38936;DHT22;66589;47.458;9.644;2023-03-03T02:51:00;4.80;83.10
38936;DHT22;66589;47.458;9.644;2023-03-03T02:53:26;4.90;83.00
38936;DHT22;66589;47.458;9.644;2023-03-03T02:55:51;4.90;82.80
38936;DHT22;66589;47.458;9.644;2023-03-03T02:58:17;4.80;83.10
38936;DHT22;66589;47.458;9.644;2023-03-03T03:00:42;4.70;83.20
38936;DHT22;66589;47.458;9.644;2023-03-03T03:03:09;4.80;83.40
38936;DHT22;66589;47.458;9.644;2023-03-03T03:05:34;4.80;83.10
38936;DHT22;66589;47.458;9.644;2023-03-03T03:08:00;4.90;83.30
38936;DHT22;66589;47.458;9.644;2023-03-03T03:10:25;4.90;83.20
38936;DHT22;66589;47.458;9.644;2023-03-03T03:12:51;4.90;82.60
38936;DHT22;66589;47.458;9.644;2023-03-03T03:15:17;5.00;82.60
38936;DHT22;66589;47.458;9.644;2023-03-03T03:17:42;5.00;82.80
38936;DHT22;66589;47.458;9.644;2023-03-03T03:20:08;5.00;82.90
38936;DHT22;66589;47.458;9.644;2023-03-03T03:22:34;4.90;83.10
38936;DHT22;66589;47.458;9.644;2023-03-03T03:25:00;5.00;83.20
38936;DHT22;66589;47.458;9.644;2023-03-03T03:27:26;4.90;83.20
38936;DHT22;66589;47.458;9.644;2023-03-03T03:29:51;5.00;83.00
38936;DHT22;66589;47.458;9.644;2023-03-03T03:32:17;5.00;82.70
38936;DHT22;66589;47.458;9.644;2023-03-03T03:34:43;5.00;82.90
38936;DHT22;66589;47.458;9.644;2023-03-03T03:37:09;4.90;83.10
38936;DHT22;66589;47.458;9.644;2023-03-03T03:39:35;4.90;83.20
38936;DHT22;66589;47.458;9.644;2023-03-03T03:42:01;4.90;83.40
38936;DHT22;66589;47.458;9.644;2023-03-03T03:44:26;4.90;83.50
38936;DHT22;66589;47.458;9.644;2023-03-03T03:46:52;4.90;83.70
38936;DHT22;66589;47.458;9.644;2023-03-03T03:49:18;4.90;83.10
38936;DHT22;66589;47.458;9.644;2023-03-03T03:51:43;4.90;82.80
38936;DHT22;66589;47.458;9.644;2023-03-03T03:54:09;4.80;82.80
38936;DHT22;66589;47.458;9.644;2023-03-03T03:56:35;4.70;83.20
38936;DHT22;66589;47.458;9.644;2023-03-03T03:59:00;4.60;83.80
38936;DHT22;66589;47.458;9.644;2023-03-03T04:01:26;4.50;84.10
38936;DHT22;66589;47.458;9.644;2023-03-03T04:03:52;4.40;84.50
38936;DHT22;66589;47.458;9.644;2023-03-03T04:06:18;4.30;85.20
38936;DHT22;66589;47.458;9.644;2023-03-03T04:08:44;4.40;84.70
38936;DHT22;66589;47.458;9.644;2023-03-03T04:11:09;4.50;84.40
38936;DHT22;66589;47.458;9.644;2023-03-03T04:13:35;4.60;84.10
38936;DHT22;66589;47.458;9.644;2023-03-03T04:16:01;4.60;83.80
38936;DHT22;66589;47.458;9.644;2023-03-03T04:18:27;4.70;83.60
38936;DHT22;66589;47.458;9.644;2023-03-03T04:20:53;4.60;83.70
38936;DHT22;66589;47.458;9.644;2023-03-03T04:23:20;4.70;83.40
38936;DHT22;66589;47.458;9.644;2023-03-03T04:25:46;4.70;83.30
38936;DHT22;66589;47.458;9.644;2023-03-03T04:28:12;4.60;83.40
38936;DHT22;66589;47.458;9.644;2023-03-03T04:30:39;4.70;83.40
38936;DHT22;66589;47.458;9.644;2023-03-03T04:33:05;4.80;83.30
38936;DHT22;66589;47.458;9.644;2023-03-03T04:35:31;4.80;83.50
38936;DHT22;66589;47.458;9.644;2023-03-03T04:37:57;4.80;83.60
38936;DHT22;66589;47.458;9.644;2023-03-03T04:40:23;4.80;83.80
38936;DHT22;66589;47.458;9.644;2023-03-03T04:42:48;4.80;84.10
38936;DHT22;66589;47.458;9.644;2023-03-03T04:45:14;4.80;84.00
38936;DHT22;66589;47.458;9.644;2023-03-03T04:47:40;4.80;83.60
38936;DHT22;66589;47.458;9.644;2023-03-03T04:50:07;4.90;83.50
38936;DHT22;66589;47.458;9.644;2023-03-03T04:52:33;4.90;83.00
38936;DHT22;66589;47.458;9.644;2023-03-03T04:54:59;4.80;83.10
38936;DHT22;66589;47.458;9.644;2023-03-03T04:57:25;4.90;83.50
38936;DHT22;66589;47.458;9.644;2023-03-03T04:59:50;4.80;83.90
38936;DHT22;66589;47.458;9.644;2023-03-03T05:02:16;4.80;84.10
38936;DHT22;66589;47.458;9.644;2023-03-03T05:04:42;4.80;83.80
38936;DHT22;66589;47.458;9.644;2023-03-03T05:07:08;4.80;83.90
38936;DHT22;66589;47.458;9.644;2023-03-03T05:09:34;4.80;83.60
38936;DHT22;66589;47.458;9.644;2023-03-03T05:12:00;4.80;83.80
38936;DHT22;66589;47.458;9.644;2023-03-03T05:14:26;4.90;83.70
38936;DHT22;66589;47.458;9.644;2023-03-03T05:16:52;4.90;82.80
38936;DHT22;66589;47.458;9.644;2023-03-03T05:19:17;4.80;83.00
38936;DHT22;66589;47.458;9.644;2023-03-03T05:21:43;4.80;82.70
38936;DHT22;66589;47.458;9.644;2023-03-03T05:24:10;4.80;82.40
38936;DHT22;66589;47.458;9.644;2023-03-03T05:26:37;4.80;82.50
38936;DHT22;66589;47.458;9.644;2023-03-03T05:29:03;4.80;82.90
38936;DHT22;66589;47.458;9.644;2023-03-03T05:31:29;4.80;82.80
38936;DHT22;66589;47.458;9.644;2023-03-03T05:33:54;4.90;82.60
38936;DHT22;66589;47.458;9.644;2023-03-03T05:36:20;4.90;82.40
38936;DHT22;66589;47.458;9.644;2023-03-03T05:38:46;4.90;82.20
38936;DHT22;66589;47.458;9.644;2023-03-03T05:41:12;4.90;82.30
38936;DHT22;66589;47.458;9.644;2023-03-03T05:43:37;4.80;82.30
38936;DHT22;66589;47.458;9.644;2023-03-03T05:46:03;4.80;82.50
38936;DHT22;66589;47.458;9.644;2023-03-03T05:48:29;4.90;82.40
38936;DHT22;66589;47.458;9.644;2023-03-03T05:50:57;4.80;82.20
38936;DHT22;66589;47.458;9.644;2023-03-03T05:53:24;4.90;82.20
38936;DHT22;66589;47.458;9.644;2023-03-03T05:55:49;4.90;82.20
38936;DHT22;66589;47.458;9.644;2023-03-03T05:58:15;4.80;82.50
38936;DHT22;66589;47.458;9.644;2023-03-03T06:00:41;4.90;82.50
38936;DHT22;66589;47.458;9.644;2023-03-03T06:03:06;5.00;82.10
38936;DHT22;66589;47.458;9.644;2023-03-03T06:05:32;5.00;81.90
38936;DHT22;66589;47.458;9.644;2023-03-03T06:07:58;5.00;82.30
38936;DHT22;66589;47.458;9.644;2023-03-03T06:10:24;5.00;82.30
38936;DHT22;66589;47.458;9.644;2023-03-03T06:12:50;5.00;82.10
38936;DHT22;66589;47.458;9.644;2023-03-03T06:15:16;4.90;82.50
38936;DHT22;66589;47.458;9.644;2023-03-03T06:17:42;5.00;82.20
38936;DHT22;66589;47.458;9.644;2023-03-03T06:20:08;5.00;81.50
38936;DHT22;66589;47.458;9.644;2023-03-03T06:22:34;5.10;81.50
38936;DHT22;66589;47.458;9.644;2023-03-03T06:25:00;5.10;82.10
38936;DHT22;66589;47.458;9.644;2023-03-03T06:27:26;5.10;82.00
38936;DHT22;66589;47.458;9.644;2023-03-03T06:29:51;5.20;81.80
38936;DHT22;66589;47.458;9.644;2023-03-03T06:32:17;5.20;81.50
38936;DHT22;66589;47.458;9.644;2023-03-03T06:34:43;5.20;81.50
38936;DHT22;66589;47.458;9.644;2023-03-03T06:37:09;5.30;81.50
38936;DHT22;66589;47.458;9.644;2023-03-03T06:39:34;5.30;81.00
38936;DHT22;66589;47.458;9.644;2023-03-03T06:42:00;5.30;81.50
38936;DHT22;66589;47.458;9.644;2023-03-03T06:44:26;5.40;81.50
38936;DHT22;66589;47.458;9.644;2023-03-03T06:46:51;5.40;81.00
38936;DHT22;66589;47.458;9.644;2023-03-03T06:49:18;5.50;80.80
38936;DHT22;66589;47.458;9.644;2023-03-03T06:51:43;5.50;80.80
38936;DHT22;66589;47.458;9.644;2023-03-03T06:54:19;5.50;80.30
38936;DHT22;66589;47.458;9.644;2023-03-03T06:56:46;5.50;80.50
38936;DHT22;66589;47.458;9.644;2023-03-03T06:59:17;5.40;80.60
38936;DHT22;66589;47.458;9.644;2023-03-03T07:01:45;5.40;80.40
38936;DHT22;66589;47.458;9.644;2023-03-03T07:04:16;5.50;80.30
38936;DHT22;66589;47.458;9.644;2023-03-03T07:06:44;5.50;80.10
38936;DHT22;66589;47.458;9.644;2023-03-03T07:09:22;5.60;79.70
38936;DHT22;66589;47.458;9.644;2023-03-03T07:11:49;5.70;80.10
38936;DHT22;66589;47.458;9.644;2023-03-03T07:14:17;5.80;80.00
38936;DHT22;66589;47.458;9.644;2023-03-03T07:16:43;5.90;80.00
38936;DHT22;66589;47.458;9.644;2023-03-03T07:19:26;6.00;79.80
38936;DHT22;66589;47.458;9.644;2023-03-03T07:21:54;6.00;79.20
38936;DHT22;66589;47.458;9.644;2023-03-03T07:24:29;6.00;79.70
38936;DHT22;66589;47.458;9.644;2023-03-03T07:27:05;6.10;79.30
38936;DHT22;66589;47.458;9.644;2023-03-03T07:29:36;6.20;79.10
38936;DHT22;66589;47.458;9.644;2023-03-03T07:32:02;6.20;78.60
38936;DHT22;66589;47.458;9.644;2023-03-03T07:34:37;6.20;78.70
38936;DHT22;66589;47.458;9.644;2023-03-03T07:37:37;6.20;77.10
38936;DHT22;66589;47.458;9.644;2023-03-03T07:42:53;6.30;76.90
38936;DHT22;66589;47.458;9.644;2023-03-03T07:45:26;6.30;76.80
38936;DHT22;66589;47.458;9.644;2023-03-03T07:47:57;6.30;77.20
38936;DHT22;66589;47.458;9.644;2023-03-03T07:50:26;6.40;77.80
38936;DHT22;66589;47.458;9.644;2023-03-03T07:52:59;6.50;76.30
38936;DHT22;66589;47.458;9.644;2023-03-03T08:03:20;6.70;74.90
38936;DHT22;66589;47.458;9.644;2023-03-03T08:05:48;6.60;75.00
38936;DHT22;66589;47.458;9.644;2023-03-03T08:08:34;6.60;75.30
38936;DHT22;66589;47.458;9.644;2023-03-03T08:11:06;6.70;76.00
38936;DHT22;66589;47.458;9.644;2023-03-03T08:18:50;6.90;75.00
38936;DHT22;66589;47.458;9.644;2023-03-03T08:21:19;7.00;74.70
38936;DHT22;66589;47.458;9.644;2023-03-03T08:23:45;7.10;73.60
38936;DHT22;66589;47.458;9.644;2023-03-03T08:26:13;7.10;74.10
38936;DHT22;66589;47.458;9.644;2023-03-03T08:28:39;7.20;73.60
38936;DHT22;66589;47.458;9.644;2023-03-03T08:31:05;7.20;73.30
38936;DHT22;66589;47.458;9.644;2023-03-03T08:33:31;7.10;72.90
38936;DHT22;66589;47.458;9.644;2023-03-03T08:35:56;7.10;73.80
38936;DHT22;66589;47.458;9.644;2023-03-03T08:38:22;7.20;73.60
38936;DHT22;66589;47.458;9.644;2023-03-03T08:40:48;7.40;72.50
38936;DHT22;66589;47.458;9.644;2023-03-03T08:43:15;7.50;72.10
38936;DHT22;66589;47.458;9.644;2023-03-03T08:45:44;7.60;71.90
38936;DHT22;66589;47.458;9.644;2023-03-03T08:48:10;7.60;71.40
38936;DHT22;66589;47.458;9.644;2023-03-03T08:50:36;7.40;72.10
38936;DHT22;66589;47.458;9.644;2023-03-03T08:53:03;7.40;72.40
38936;DHT22;66589;47.458;9.644;2023-03-03T08:55:29;7.50;72.00
38936;DHT22;66589;47.458;9.644;2023-03-03T08:57:55;7.50;71.80
38936;DHT22;66589;47.458;9.644;2023-03-03T09:00:21;7.50;71.90
38936;DHT22;66589;47.458;9.644;2023-03-03T09:02:47;7.50;72.10
38936;DHT22;66589;47.458;9.644;2023-03-03T09:05:15;7.60;72.10
38936;DHT22;66589;47.458;9.644;2023-03-03T09:07:43;7.60;71.40
38936;DHT22;66589;47.458;9.644;2023-03-03T09:10:11;7.70;71.40
38936;DHT22;66589;47.458;9.644;2023-03-03T09:12:40;7.70;71.10
38936;DHT22;66589;47.458;9.644;2023-03-03T09:15:19;7.60;71.40
38936;DHT22;66589;47.458;9.644;2023-03-03T09:17:46;7.70;71.60
38936;DHT22;66589;47.458;9.644;2023-03-03T09:20:27;7.80;72.30
38936;DHT22;66589;47.458;9.644;2023-03-03T09:22:54;8.00;71.30
38936;DHT22;66589;47.458;9.644;2023-03-03T09:25:35;8.00;71.10
38936;DHT22;66589;47.458;9.644;2023-03-03T09:28:02;8.00;71.00
38936;DHT22;66589;47.458;9.644;2023-03-03T09:30:35;8.00;70.90
38936;DHT22;66589;47.458;9.644;2023-03-03T09:33:15;7.80;71.40
38936;DHT22;66589;47.458;9.644;2023-03-03T09:35:41;7.70;72.40
38936;DHT22;66589;47.458;9.644;2023-03-03T09:38:31;7.60;73.90
38936;DHT22;66589;47.458;9.644;2023-03-03T09:49:41;7.30;74.30
38936;DHT22;66589;47.458;9.644;2023-03-03T09:57:24;7.60;73.50
38936;DHT22;66589;47.458;9.644;2023-03-03T10:00:19;7.70;74.20
38936;DHT22;66589;47.458;9.644;2023-03-03T10:08:35;8.00;71.90
38936;DHT22;66589;47.458;9.644;2023-03-03T10:11:18;8.10;72.00
38936;DHT22;66589;47.458;9.644;2023-03-03T10:19:44;8.60;70.90
38936;DHT22;66589;47.458;9.644;2023-03-03T10:22:25;8.70;71.40
38936;DHT22;66589;47.458;9.644;2023-03-03T10:47:20;9.30;69.50
38936;DHT22;66589;47.458;9.644;2023-03-03T10:58:23;9.40;69.50
38936;DHT22;66589;47.458;9.644;2023-03-03T11:07:05;9.60;68.80
38936;DHT22;66589;47.458;9.644;2023-03-03T11:12:28;9.70;68.80
38936;DHT22;66589;47.458;9.644;2023-03-03T11:34:17;10.40;66.40
38936;DHT22;66589;47.458;9.644;2023-03-03T11:36:52;10.40;66.80
38936;DHT22;66589;47.458;9.644;2023-03-03T11:39:22;10.50;65.20
38936;DHT22;66589;47.458;9.644;2023-03-03T11:44:46;10.70;66.60
38936;DHT22;66589;47.458;9.644;2023-03-03T11:47:24;10.70;65.50
38936;DHT22;66589;47.458;9.644;2023-03-03T11:50:15;10.70;65.00
38936;DHT22;66589;47.458;9.644;2023-03-03T11:55:51;10.70;66.10
38936;DHT22;66589;47.458;9.644;2023-03-03T11:58:28;10.90;64.10
38936;DHT22;66589;47.458;9.644;2023-03-03T12:14:19;11.30;64.80
38936;DHT22;66589;47.458;9.644;2023-03-03T12:16:58;11.40;63.60
38936;DHT22;66589;47.458;9.644;2023-03-03T12:25:42;11.40;63.70
38936;DHT22;66589;47.458;9.644;2023-03-03T12:28:16;11.10;65.30
38936;DHT22;66589;47.458;9.644;2023-03-03T12:42:12;10.40;66.50
38936;DHT22;66589;47.458;9.644;2023-03-03T12:44:54;10.40;66.60
38936;DHT22;66589;47.458;9.644;2023-03-03T12:47:43;10.50;66.50
38936;DHT22;66589;47.458;9.644;2023-03-03T13:11:44;10.70;66.00
38936;DHT22;66589;47.458;9.644;2023-03-03T13:17:30;10.40;65.20
38936;DHT22;66589;47.458;9.644;2023-03-03T13:27:37;10.10;68.30
38936;DHT22;66589;47.458;9.644;2023-03-03T13:30:15;10.00;67.90
38936;DHT22;66589;47.458;9.644;2023-03-03T13:35:40;10.40;68.10
38936;DHT22;66589;47.458;9.644;2023-03-03T13:38:13;10.50;67.10
38936;DHT22;66589;47.458;9.644;2023-03-03T13:40:45;10.50;67.50
38936;DHT22;66589;47.458;9.644;2023-03-03T13:52:09;10.80;66.10
38936;DHT22;66589;47.458;9.644;2023-03-03T13:57:19;10.90;65.90
38936;DHT22;66589;47.458;9.644;2023-03-03T14:08:02;10.40;66.40
38936;DHT22;66589;47.458;9.644;2023-03-03T14:10:35;10.20;67.30
38936;DHT22;66589;47.458;9.644;2023-03-03T14:13:18;10.00;67.80
38936;DHT22;66589;47.458;9.644;2023-03-03T14:16:04;10.00;68.10
38936;DHT22;66589;47.458;9.644;2023-03-03T14:21:22;9.80;68.20
38936;DHT22;66589;47.458;9.644;2023-03-03T14:26:52;9.60;69.50
38936;DHT22;66589;47.458;9.644;2023-03-03T14:31:58;9.40;70.40
38936;DHT22;66589;47.458;9.644;2023-03-03T14:34:38;9.40;70.50
38936;DHT22;66589;47.458;9.644;2023-03-03T14:37:26;9.50;70.40
38936;DHT22;66589;47.458;9.644;2023-03-03T14:40:21;9.60;70.30
38936;DHT22;66589;47.458;9.644;2023-03-03T14:42:55;9.60;69.80
38936;DHT22;66589;47.458;9.644;2023-03-03T14:45:38;9.50;70.40
38936;DHT22;66589;47.458;9.644;2023-03-03T14:48:25;9.40;70.30
38936;DHT22;66589;47.458;9.644;2023-03-03T14:53:43;9.30;72.10
38936;DHT22;66589;47.458;9.644;2023-03-03T14:58:47;9.30;71.30
38936;DHT22;66589;47.458;9.644;2023-03-03T15:01:29;9.20;71.50
38936;DHT22;66589;47.458;9.644;2023-03-03T15:04:04;9.10;72.10
38936;DHT22;66589;47.458;9.644;2023-03-03T15:06:47;9.00;71.50
38936;DHT22;66589;47.458;9.644;2023-03-03T15:11:52;8.90;72.40
38936;DHT22;66589;47.458;9.644;2023-03-03T15:14:24;9.00;72.40
38936;DHT22;66589;47.458;9.644;2023-03-03T15:16:56;9.00;72.30
38936;DHT22;66589;47.458;9.644;2023-03-03T15:19:43;8.90;72.20
38936;DHT22;66589;47.458;9.644;2023-03-03T15:23:04;9.00;72.20
38936;DHT22;66589;47.458;9.644;2023-03-03T15:25:17;9.00;72.30
38936;DHT22;66589;47.458;9.644;2023-03-03T15:27:50;9.00;73.70
38936;DHT22;66589;47.458;9.644;2023-03-03T15:33:27;8.70;72.10
38936;DHT22;66589;47.458;9.644;2023-03-03T15:39:09;8.70;73.00
38936;DHT22;66589;47.458;9.644;2023-03-03T15:41:45;8.70;73.00
38936;DHT22;66589;47.458;9.644;2023-03-03T15:53:10;8.50;73.60
38936;DHT22;66589;47.458;9.644;2023-03-03T15:55:53;8.50;74.40
38936;DHT22;66589;47.458;9.644;2023-03-03T16:01:34;8.40;74.60
38936;DHT22;66589;47.458;9.644;2023-03-03T16:04:14;8.30;75.20
38936;DHT22;66589;47.458;9.644;2023-03-03T16:06:54;8.20;75.20
38936;DHT22;66589;47.458;9.644;2023-03-03T16:09:28;8.10;75.40
38936;DHT22;66589;47.458;9.644;2023-03-03T16:27:36;7.90;76.70
38936;DHT22;66589;47.458;9.644;2023-03-03T16:32:44;7.90;77.20
38936;DHT22;66589;47.458;9.644;2023-03-03T16:40:32;7.90;77.20
38936;DHT22;66589;47.458;9.644;2023-03-03T16:46:01;7.90;77.00
38936;DHT22;66589;47.458;9.644;2023-03-03T16:48:52;7.90;81.90
38936;DHT22;66589;47.458;9.644;2023-03-03T16:54:08;7.80;77.30
38936;DHT22;66589;47.458;9.644;2023-03-03T17:02:02;7.50;77.90
38936;DHT22;66589;47.458;9.644;2023-03-03T17:20:48;7.20;79.40
38936;DHT22;66589;47.458;9.644;2023-03-03T17:23:23;7.10;79.60
38936;DHT22;66589;47.458;9.644;2023-03-03T17:29:04;7.10;79.80
38936;DHT22;66589;47.458;9.644;2023-03-03T18:11:48;6.70;80.80
38936;DHT22;66589;47.458;9.644;2023-03-03T18:22:45;6.70;80.90
38936;DHT22;66589;47.458;9.644;2023-03-03T18:25:17;6.60;81.00
38936;DHT22;66589;47.458;9.644;2023-03-03T18:30:26;6.60;81.20
38936;DHT22;66589;47.458;9.644;2023-03-03T18:41:12;6.30;81.60
38936;DHT22;66589;47.458;9.644;2023-03-03T18:49:09;6.00;82.70
38936;DHT22;66589;47.458;9.644;2023-03-03T18:57:11;5.70;84.70
38936;DHT22;66589;47.458;9.644;2023-03-03T18:59:39;5.60;84.70
38936;DHT22;66589;47.458;9.644;2023-03-03T19:04:40;5.60;85.00
38936;DHT22;66589;47.458;9.644;2023-03-03T19:07:20;5.50;85.30
38936;DHT22;66589;47.458;9.644;2023-03-03T19:10:03;5.50;85.30
38936;DHT22;66589;47.458;9.644;2023-03-03T19:20:40;5.40;86.00
38936;DHT22;66589;47.458;9.644;2023-03-03T19:23:33;5.30;86.30
38936;DHT22;66589;47.458;9.644;2023-03-03T19:58:31;4.60;90.00
38936;DHT22;66589;47.458;9.644;2023-03-03T20:01:32;4.70;89.90
38936;DHT22;66589;47.458;9.644;2023-03-03T20:04:35;4.60;89.90
38936;DHT22;66589;47.458;9.644;2023-03-03T20:10:04;4.50;90.40
38936;DHT22;66589;47.458;9.644;2023-03-03T20:20:38;4.30;90.50
38936;DHT22;66589;47.458;9.644;2023-03-03T20:23:27;4.30;90.40
38936;DHT22;66589;47.458;9.644;2023-03-03T20:31:47;4.20;90.10
38936;DHT22;66589;47.458;9.644;2023-03-03T20:48:03;3.80;91.10
38936;DHT22;66589;47.458;9.644;2023-03-03T20:50:52;3.80;91.20
38936;DHT22;66589;47.458;9.644;2023-03-03T20:56:21;3.70;91.40
38936;DHT22;66589;47.458;9.644;2023-03-03T20:59:17;3.60;91.30
38936;DHT22;66589;47.458;9.644;2023-03-03T21:05:20;3.60;91.20
38936;DHT22;66589;47.458;9.644;2023-03-03T21:07:50;3.60;91.00
38936;DHT22;66589;47.458;9.644;2023-03-03T21:10:21;3.60;90.90
38936;DHT22;66589;47.458;9.644;2023-03-03T21:12:50;3.60;90.90
38936;DHT22;66589;47.458;9.644;2023-03-03T21:15:29;3.60;90.90
38936;DHT22;66589;47.458;9.644;2023-03-03T21:17:56;3.60;90.90
38936;DHT22;66589;47.458;9.644;2023-03-03T21:22:48;3.60;90.80
38936;DHT22;66589;47.458;9.644;2023-03-03T21:25:48;3.60;91.00
38936;DHT22;66589;47.458;9.644;2023-03-03T21:28:23;3.60;90.80
38936;DHT22;66589;47.458;9.644;2023-03-03T21:33:54;3.50;91.00
38936;DHT22;66589;47.458;9.644;2023-03-03T21:38:48;3.50;91.30
38936;DHT22;66589;47.458;9.644;2023-03-03T21:41:15;3.60;90.90
38936;DHT22;66589;47.458;9.644;2023-03-03T21:43:43;3.50;90.70
38936;DHT22;66589;47.458;9.644;2023-03-03T21:46:10;3.60;90.60
38936;DHT22;66589;47.458;9.644;2023-03-03T21:48:40;3.50;90.50
38936;DHT22;66589;47.458;9.644;2023-03-03T21:51:06;3.50;90.60
38936;DHT22;66589;47.458;9.644;2023-03-03T21:53:32;3.50;90.60
38936;DHT22;66589;47.458;9.644;2023-03-03T21:55:57;3.50;90.50
38936;DHT22;66589;47.458;9.644;2023-03-03T21:58:23;3.50;90.80
38936;DHT22;66589;47.458;9.644;2023-03-03T22:00:48;3.50;90.70
38936;DHT22;66589;47.458;9.644;2023-03-03T22:03:14;3.50;90.70
38936;DHT22;66589;47.458;9.644;2023-03-03T22:05:41;3.50;90.70
38936;DHT22;66589;47.458;9.644;2023-03-03T22:08:06;3.50;90.80
38936;DHT22;66589;47.458;9.644;2023-03-03T22:10:32;3.50;90.80
38936;DHT22;66589;47.458;9.644;2023-03-03T22:12:58;3.50;90.70
38936;DHT22;66589;47.458;9.644;2023-03-03T22:15:24;3.60;91.00
38936;DHT22;66589;47.458;9.644;2023-03-03T22:17:49;3.60;90.70
38936;DHT22;66589;47.458;9.644;2023-03-03T22:20:15;3.60;90.60
38936;DHT22;66589;47.458;9.644;2023-03-03T22:22:42;3.70;90.80
38936;DHT22;66589;47.458;9.644;2023-03-03T22:25:08;3.70;90.80
38936;DHT22;66589;47.458;9.644;2023-03-03T22:27:34;3.70;90.60
38936;DHT22;66589;47.458;9.644;2023-03-03T22:30:00;3.70;90.60
38936;DHT22;66589;47.458;9.644;2023-03-03T22:32:26;3.80;90.70
38936;DHT22;66589;47.458;9.644;2023-03-03T22:34:52;3.70;90.70
38936;DHT22;66589;47.458;9.644;2023-03-03T22:37:18;3.70;90.50
38936;DHT22;66589;47.458;9.644;2023-03-03T22:39:44;3.70;90.70
38936;DHT22;66589;47.458;9.644;2023-03-03T22:42:09;3.70;90.60
38936;DHT22;66589;47.458;9.644;2023-03-03T22:44:35;3.70;90.60
38936;DHT22;66589;47.458;9.644;2023-03-03T22:47:02;3.70;90.50
38936;DHT22;66589;47.458;9.644;2023-03-03T22:49:28;3.70;90.30
38936;DHT22;66589;47.458;9.644;2023-03-03T22:51:54;3.60;90.60
38936;DHT22;66589;47.458;9.644;2023-03-03T22:54:20;3.60;90.60
38936;DHT22;66589;47.458;9.644;2023-03-03T22:56:46;3.60;90.70
38936;DHT22;66589;47.458;9.644;2023-03-03T22:59:11;3.50;90.60
38936;DHT22;66589;47.458;9.644;2023-03-03T23:01:37;3.50;91.30
38936;DHT22;66589;47.458;9.644;2023-03-03T23:04:03;3.40;91.10
38936;DHT22;66589;47.458;9.644;2023-03-03T23:06:29;3.40;91.10
38936;DHT22;66589;47.458;9.644;2023-03-03T23:08:54;3.30;91.30
38936;DHT22;66589;47.458;9.644;2023-03-03T23:11:20;3.20;91.80
38936;DHT22;66589;47.458;9.644;2023-03-03T23:13:46;3.20;92.30
38936;DHT22;66589;47.458;9.644;2023-03-03T23:16:11;3.10;91.90
38936;DHT22;66589;47.458;9.644;2023-03-03T23:18:37;3.10;91.80
38936;DHT22;66589;47.458;9.644;2023-03-03T23:21:03;3.00;91.60
38936;DHT22;66589;47.458;9.644;2023-03-03T23:23:29;3.00;91.50
38936;DHT22;66589;47.458;9.644;2023-03-03T23:25:55;2.90;91.80
38936;DHT22;66589;47.458;9.644;2023-03-03T23:28:21;2.90;92.10
38936;DHT22;66589;47.458;9.644;2023-03-03T23:30:46;2.80;92.20
38936;DHT22;66589;47.458;9.644;2023-03-03T23:33:13;2.80;92.10
38936;DHT22;66589;47.458;9.644;2023-03-03T23:35:38;2.70;92.30